FW7448 Weather Reports


Display with metric or nautical units.
time (UTC)temp
F
wind
direction
speed
MPH
gust
MPH
rain 1hr
in
rain 24hr
in
rain mn
in
humidity
%
barometer
mb
20240614184542 87 135 2.0 8.0 0.00 0.00 0.00 57 1014.7
20240614183045 89 0 1.0 6.0 0.00 0.00 0.00 49 1014.7
20240614181628 90 76 1.0 4.0 0.00 0.00 0.00 50 1014.9
20240614180056 90 61 3.0 7.0 0.00 0.00 0.00 51 1014.8
20240614174545 90 65 0.0 8.0 0.00 0.00 0.00 49 1015.1
20240614173045 89 125 2.0 8.0 0.00 0.00 0.00 52 1015.2
20240614171547 88 65 2.0 6.0 0.00 0.00 0.00 51 1015.3
20240614170040 90 352 1.0 4.0 0.00 0.00 0.00 51 1015.5
20240614164556 87 207 1.0 5.0 0.00 0.00 0.00 54 1015.6
20240614163055 87 329 2.0 8.0 0.00 0.00 0.00 55 1015.8
20240614161545 87 158 2.0 5.0 0.00 0.00 0.00 53 1015.9
20240614160047 87 286 2.0 7.0 0.00 0.00 0.00 54 1015.8
20240614154546 87 237 0.0 6.0 0.00 0.00 0.00 52 1015.8
20240614153050 86 153 1.0 6.0 0.00 0.00 0.00 55 1016.1
20240614151550 86 63 2.0 4.0 0.00 0.00 0.00 56 1016.2
20240614150047 85 301 2.0 4.0 0.00 0.00 0.00 57 1016.2
20240614144553 85 101 2.0 4.0 0.00 0.00 0.00 59 1016.2
20240614143044 83 360 1.0 5.0 0.00 0.00 0.00 61 1016.4
20240614141609 83 105 1.0 4.0 0.00 0.00 0.00 65 1016.5
20240614140046 81 57 1.0 5.0 0.00 0.00 0.00 66 1016.7
20240614134548 80 115 1.0 6.0 0.00 0.00 0.00 68 1016.8
20240614133047 78 333 1.0 4.0 0.00 0.00 0.00 70 1016.7
20240614131545 77 0 1.0 4.0 0.00 0.00 0.00 73 1016.7
20240614130050 76 352 1.0 5.0 0.00 0.00 0.00 75 1017.0
20240614124557 74 0 1.0 4.0 0.00 0.00 0.00 77 1016.7
20240614123050 73 0 1.0 3.0 0.00 0.00 0.00 80 1016.4
20240614121549 71 325 1.0 3.0 0.00 0.00 0.00 84 1016.6
20240614120047 69 338 1.0 6.0 0.00 0.00 0.00 89 1017.2
20240614114545 67 331 2.0 5.0 0.00 0.00 0.00 92 1017.1
20240614113047 65 306 1.0 3.0 0.00 0.00 0.00 93 1016.8
20240614111558 64 0 0.0 0.0 0.00 0.00 0.00 94 1016.7
20240614110053 63 0 0.0 0.0 0.00 0.00 0.00 93 1016.6
20240614104538 63 0 0.0 0.0 0.00 0.00 0.00 93 1016.3
20240614103043 63 0 0.0 1.0 0.00 0.00 0.00 92 1016.0
20240614101607 63 0 0.0 2.0 0.00 0.00 0.00 92 1016.0
20240614100051 63 0 0.0 1.0 0.00 0.00 0.00 92 1015.9
20240614094543 63 0 0.0 1.0 0.00 0.00 0.00 91 1015.8
20240614093046 64 215 0.0 2.0 0.00 0.00 0.00 91 1015.8
20240614091549 64 215 0.0 2.0 0.00 0.00 0.00 90 1015.9
20240614090041 65 0 0.0 0.0 0.00 0.00 0.00 90 1016.0
20240614084552 65 0 0.0 0.0 0.00 0.00 0.00 90 1016.1
20240614083041 65 0 0.0 1.0 0.00 0.00 0.00 89 1016.0
20240614081544 65 0 0.0 1.0 0.00 0.00 0.00 88 1016.1
20240614080041 66 0 0.0 0.0 0.00 0.00 0.00 87 1016.3
20240614074544 66 0 0.0 1.0 0.00 0.00 0.00 87 1016.5
20240614073038 67 0 0.0 1.0 0.00 0.00 0.00 87 1016.5
20240614071550 67 0 0.0 2.0 0.00 0.00 0.00 86 1016.5
20240614070055 68 0 0.0 1.0 0.00 0.00 0.00 85 1016.4
20240614064553 68 0 0.0 2.0 0.00 0.00 0.00 85 1016.6
20240614063042 69 0 0.0 2.0 0.00 0.00 0.00 83 1016.8
20240614061543 70 0 0.0 0.0 0.00 0.00 0.00 83 1016.6
20240614060058 70 0 0.0 0.0 0.00 0.00 0.00 81 1016.5
20240614054537 71 0 0.0 0.0 0.00 0.00 0.00 79 1016.6
20240614053040 72 0 0.0 0.0 0.00 0.00 0.00 78 1016.8
20240614051547 72 0 0.0 0.0 0.00 0.00 0.00 77 1016.8
20240614050103 73 0 0.0 2.0 0.00 0.00 0.00 76 1016.7
20240614044540 73 209 1.0 2.0 0.00 0.00 0.00 76 1016.8
20240614043048 74 311 1.0 3.0 0.00 0.00 0.00 73 1017.0
20240614041553 74 11 1.0 3.0 0.00 0.00 0.00 72 1017.0
20240614040105 74 335 0.0 3.0 0.00 0.00 0.00 73 1017.1
20240614034548 74 331 1.0 3.0 0.00 0.00 0.00 71 1016.9
20240614033047 76 329 0.0 3.0 0.00 0.00 0.00 70 1017.0
20240614031609 76 0 0.0 4.0 0.00 0.00 0.00 67 1016.8
20240614030054 77 0 0.0 2.0 0.00 0.00 0.00 66 1016.8
20240614024544 77 0 0.0 3.0 0.00 0.00 0.00 65 1017.0
20240614023046 77 293 2.0 6.0 0.00 0.00 0.00 65 1017.1
20240614021547 77 0 0.0 3.0 0.00 0.00 0.00 64 1016.8
20240614020114 78 288 0.0 4.0 0.00 0.00 0.00 65 1016.7
20240614014541 78 0 0.0 3.0 0.00 0.00 0.00 64 1016.6
20240614013045 78 0 0.0 2.0 0.00 0.00 0.00 65 1016.7
20240614011548 78 244 0.0 2.0 0.00 0.00 0.00 67 1016.5
20240614010106 79 0 0.0 2.0 0.00 0.00 0.00 68 1016.5
20240614004545 80 0 0.0 1.0 0.00 0.00 0.00 65 1016.6
20240614003116 81 0 0.0 1.0 0.00 0.00 0.00 64 1016.5
20240614001558 82 0 0.0 3.0 0.00 0.00 0.00 61 1016.5
20240614000047 83 0 0.0 3.0 0.00 0.00 0.00 58 1016.4
20240613234558 83 277 1.0 3.0 0.00 0.00 0.00 57 1016.3
20240613233046 84 247 1.0 4.0 0.00 0.00 0.00 56 1016.3
20240613231543 85 254 1.0 4.0 0.00 0.00 0.00 55 1016.3
20240613230046 85 0 1.0 4.0 0.00 0.00 0.00 52 1016.4
20240613224551 86 0 2.0 6.0 0.00 0.00 0.00 49 1016.4
20240613223045 87 0 2.0 5.0 0.00 0.00 0.00 47 1016.3
20240613221550 87 239 2.0 7.0 0.00 0.00 0.00 48 1016.1
20240613220049 88 221 2.0 7.0 0.00 0.00 0.00 47 1016.0
20240613214559 88 157 1.0 5.0 0.00 0.00 0.00 47 1016.1
20240613213059 88 258 2.0 7.0 0.00 0.00 0.00 46 1016.2
20240613211543 89 246 1.0 8.0 0.00 0.00 0.00 46 1016.2
20240613210045 88 216 2.0 7.0 0.00 0.00 0.00 48 1016.3
20240613204541 87 261 3.0 8.0 0.00 0.00 0.00 50 1016.3
20240613203041 87 284 3.0 9.0 0.00 0.00 0.00 46 1016.5
20240613201551 88 284 1.0 7.0 0.00 0.00 0.00 48 1016.7
20240613200042 88 246 1.0 10.0 0.00 0.00 0.00 46 1016.7
20240613194550 89 217 1.0 5.0 0.00 0.00 0.00 47 1016.7
20240613193049 87 252 1.0 8.0 0.00 0.00 0.00 51 1016.8
20240613191545 86 314 2.0 7.0 0.00 0.00 0.00 52 1017.0
20240613190053 85 188 2.0 6.0 0.00 0.00 0.00 53 1017.1